sensor_id;sensor_type;location;lat;lon;timestamp;pressure;altitude;pressure_sealevel;temperature;humidity
29433;BME280;16405;53.964;13.448;2022-12-18T00:01:33;102669.66;;;-9.66;100.00
29433;BME280;16405;53.964;13.448;2022-12-18T00:04:02;102681.25;;;-9.58;100.00
29433;BME280;16405;53.964;13.448;2022-12-18T00:06:29;102676.56;;;-9.52;100.00
29433;BME280;16405;53.964;13.448;2022-12-18T00:08:57;102676.34;;;-9.42;100.00
29433;BME280;16405;53.964;13.448;2022-12-18T00:11:26;102676.47;;;-9.40;100.00
29433;BME280;16405;53.964;13.448;2022-12-18T00:13:55;102676.47;;;-9.40;100.00
29433;BME280;16405;53.964;13.448;2022-12-18T00:16:23;102677.75;;;-9.34;100.00
29433;BME280;16405;53.964;13.448;2022-12-18T00:18:52;102675.72;;;-9.26;100.00
29433;BME280;16405;53.964;13.448;2022-12-18T00:21:19;102680.31;;;-9.20;100.00
29433;BME280;16405;53.964;13.448;2022-12-18T00:23:47;102679.03;;;-9.14;100.00
29433;BME280;16405;53.964;13.448;2022-12-18T00:26:20;102686.22;;;-9.08;100.00
29433;BME280;16405;53.964;13.448;2022-12-18T00:28:51;102695.75;;;-9.05;100.00
29433;BME280;16405;53.964;13.448;2022-12-18T00:31:21;102690.16;;;-9.00;100.00
29433;BME280;16405;53.964;13.448;2022-12-18T00:33:47;102690.34;;;-8.97;100.00
29433;BME280;16405;53.964;13.448;2022-12-18T00:36:22;102690.28;;;-8.98;100.00
29433;BME280;16405;53.964;13.448;2022-12-18T00:38:48;102689.00;;;-8.92;100.00
29433;BME280;16405;53.964;13.448;2022-12-18T00:41:16;102679.84;;;-8.88;100.00
29433;BME280;16405;53.964;13.448;2022-12-18T00:44:02;102681.09;;;-8.81;100.00
29433;BME280;16405;53.964;13.448;2022-12-18T00:46:28;102686.81;;;-8.85;100.00
29433;BME280;16405;53.964;13.448;2022-12-18T00:48:54;102683.59;;;-8.83;100.00
29433;BME280;16405;53.964;13.448;2022-12-18T00:51:20;102690.56;;;-8.80;100.00
29433;BME280;16405;53.964;13.448;2022-12-18T00:53:45;102695.94;;;-8.76;100.00
29433;BME280;16405;53.964;13.448;2022-12-18T00:56:11;102703.72;;;-8.74;100.00
29433;BME280;16405;53.964;13.448;2022-12-18T00:58:37;102706.16;;;-8.76;100.00
29433;BME280;16405;53.964;13.448;2022-12-18T01:01:07;102718.13;;;-8.75;100.00
29433;BME280;16405;53.964;13.448;2022-12-18T01:03:34;102716.88;;;-8.68;100.00
29433;BME280;16405;53.964;13.448;2022-12-18T01:06:05;102716.97;;;-8.67;100.00
29433;BME280;16405;53.964;13.448;2022-12-18T01:08:31;102718.06;;;-8.63;100.00
29433;BME280;16405;53.964;13.448;2022-12-18T01:10:57;102715.69;;;-8.60;100.00
29433;BME280;16405;53.964;13.448;2022-12-18T01:13:23;102718.44;;;-8.57;100.00
29433;BME280;16405;53.964;13.448;2022-12-18T01:15:52;102720.19;;;-8.56;100.00
29433;BME280;16405;53.964;13.448;2022-12-18T01:18:18;102727.97;;;-8.54;100.00
29433;BME280;16405;53.964;13.448;2022-12-18T01:20:46;102728.84;;;-8.54;100.00
29433;BME280;16405;53.964;13.448;2022-12-18T01:23:12;102719.50;;;-8.53;100.00
29433;BME280;16405;53.964;13.448;2022-12-18T01:25:38;102722.75;;;-8.56;100.00
29433;BME280;16405;53.964;13.448;2022-12-18T01:28:04;102730.63;;;-8.53;100.00
29433;BME280;16405;53.964;13.448;2022-12-18T01:30:30;102730.69;;;-8.51;100.00
29433;BME280;16405;53.964;13.448;2022-12-18T01:32:56;102727.56;;;-8.47;100.00
29433;BME280;16405;53.964;13.448;2022-12-18T01:35:21;102729.94;;;-8.50;100.00
29433;BME280;16405;53.964;13.448;2022-12-18T01:37:47;102723.34;;;-8.60;100.00
29433;BME280;16405;53.964;13.448;2022-12-18T01:40:13;102717.47;;;-8.72;100.00
29433;BME280;16405;53.964;13.448;2022-12-18T01:42:39;102720.41;;;-8.79;100.00
29433;BME280;16405;53.964;13.448;2022-12-18T01:50:32;102718.25;;;-8.87;100.00
29433;BME280;16405;53.964;13.448;2022-12-18T01:53:13;102726.88;;;-8.84;100.00
29433;BME280;16405;53.964;13.448;2022-12-18T01:55:50;102719.81;;;-8.89;100.00
29433;BME280;16405;53.964;13.448;2022-12-18T01:58:19;102726.69;;;-8.88;100.00
29433;BME280;16405;53.964;13.448;2022-12-18T02:00:46;102723.16;;;-8.90;100.00
29433;BME280;16405;53.964;13.448;2022-12-18T02:03:11;102719.63;;;-8.92;100.00
29433;BME280;16405;53.964;13.448;2022-12-18T02:05:57;102728.84;;;-8.94;100.00
29433;BME280;16405;53.964;13.448;2022-12-18T02:09:20;102725.03;;;-9.00;100.00
29433;BME280;16405;53.964;13.448;2022-12-18T02:12:16;102731.78;;;-9.01;100.00
29433;BME280;16405;53.964;13.448;2022-12-18T02:15:13;102731.88;;;-8.99;100.00
29433;BME280;16405;53.964;13.448;2022-12-18T02:18:12;102723.06;;;-9.04;100.00
29433;BME280;16405;53.964;13.448;2022-12-18T02:20:55;102732.16;;;-9.08;100.00
29433;BME280;16405;53.964;13.448;2022-12-18T02:29:02;102737.28;;;-8.95;100.00
29433;BME280;16405;53.964;13.448;2022-12-18T02:31:39;102737.97;;;-8.97;100.00
29433;BME280;16405;53.964;13.448;2022-12-18T02:34:08;102741.41;;;-8.97;100.00
29433;BME280;16405;53.964;13.448;2022-12-18T02:36:38;102731.59;;;-9.04;100.00
29433;BME280;16405;53.964;13.448;2022-12-18T02:39:05;102733.91;;;-9.07;100.00
29433;BME280;16405;53.964;13.448;2022-12-18T02:41:38;102722.66;;;-9.11;100.00
29433;BME280;16405;53.964;13.448;2022-12-18T02:44:11;102729.91;;;-9.17;100.00
29433;BME280;16405;53.964;13.448;2022-12-18T02:46:42;102739.41;;;-9.27;100.00
29433;BME280;16405;53.964;13.448;2022-12-18T02:49:40;102741.66;;;-9.32;100.00
29433;BME280;16405;53.964;13.448;2022-12-18T02:52:27;102734.63;;;-9.48;100.00
29433;BME280;16405;53.964;13.448;2022-12-18T02:58:30;102729.38;;;-9.88;100.00
29433;BME280;16405;53.964;13.448;2022-12-18T03:04:10;102724.97;;;-10.27;100.00
29433;BME280;16405;53.964;13.448;2022-12-18T03:06:50;102736.53;;;-10.44;100.00
29433;BME280;16405;53.964;13.448;2022-12-18T03:09:29;102729.34;;;-10.62;100.00
29433;BME280;16405;53.964;13.448;2022-12-18T03:12:14;102732.81;;;-10.73;100.00
29433;BME280;16405;53.964;13.448;2022-12-18T03:17:32;102721.06;;;-10.95;100.00
29433;BME280;16405;53.964;13.448;2022-12-18T03:20:09;102718.63;;;-11.05;100.00
29433;BME280;16405;53.964;13.448;2022-12-18T03:22:38;102717.16;;;-11.13;100.00
29433;BME280;16405;53.964;13.448;2022-12-18T03:25:10;102730.56;;;-11.16;100.00
29433;BME280;16405;53.964;13.448;2022-12-18T03:27:42;102741.59;;;-11.15;100.00
29433;BME280;16405;53.964;13.448;2022-12-18T03:30:11;102749.09;;;-11.28;100.00
29433;BME280;16405;53.964;13.448;2022-12-18T03:36:17;102744.34;;;-11.36;100.00
29433;BME280;16405;53.964;13.448;2022-12-18T03:38:43;102740.81;;;-11.38;100.00
29433;BME280;16405;53.964;13.448;2022-12-18T03:47:39;102729.16;;;-11.46;100.00
29433;BME280;16405;53.964;13.448;2022-12-18T03:50:22;102723.41;;;-11.55;100.00
29433;BME280;16405;53.964;13.448;2022-12-18T03:55:34;102717.84;;;-11.61;100.00
29433;BME280;16405;53.964;13.448;2022-12-18T03:58:03;102721.16;;;-11.62;100.00
29433;BME280;16405;53.964;13.448;2022-12-18T04:00:32;102717.38;;;-11.67;100.00
29433;BME280;16405;53.964;13.448;2022-12-18T04:03:00;102722.69;;;-11.64;100.00
29433;BME280;16405;53.964;13.448;2022-12-18T04:05:27;102735.66;;;-11.61;100.00
29433;BME280;16405;53.964;13.448;2022-12-18T04:07:55;102738.88;;;-11.52;100.00
29433;BME280;16405;53.964;13.448;2022-12-18T04:10:24;102750.72;;;-11.52;100.00
29433;BME280;16405;53.964;13.448;2022-12-18T04:12:49;102751.91;;;-11.59;100.00
29433;BME280;16405;53.964;13.448;2022-12-18T04:15:15;102753.91;;;-11.55;100.00
29433;BME280;16405;53.964;13.448;2022-12-18T04:17:48;102755.84;;;-11.63;100.00
29433;BME280;16405;53.964;13.448;2022-12-18T04:20:14;102753.19;;;-11.64;100.00
29433;BME280;16405;53.964;13.448;2022-12-18T04:22:40;102758.53;;;-11.61;99.92
29433;BME280;16405;53.964;13.448;2022-12-18T04:25:07;102752.56;;;-11.62;99.94
29433;BME280;16405;53.964;13.448;2022-12-18T04:27:32;102753.97;;;-11.65;100.00
29433;BME280;16405;53.964;13.448;2022-12-18T04:29:58;102750.19;;;-11.70;100.00
29433;BME280;16405;53.964;13.448;2022-12-18T04:32:24;102763.13;;;-11.67;100.00
29433;BME280;16405;53.964;13.448;2022-12-18T04:34:50;102759.06;;;-11.65;99.19
29433;BME280;16405;53.964;13.448;2022-12-18T04:37:16;102772.50;;;-11.66;99.98
29433;BME280;16405;53.964;13.448;2022-12-18T04:39:44;102775.97;;;-11.66;99.62
29433;BME280;16405;53.964;13.448;2022-12-18T04:42:09;102781.94;;;-11.65;99.66
29433;BME280;16405;53.964;13.448;2022-12-18T04:44:36;102791.56;;;-11.61;100.00
29433;BME280;16405;53.964;13.448;2022-12-18T04:47:02;102782.16;;;-11.62;99.39
29433;BME280;16405;53.964;13.448;2022-12-18T04:49:28;102777.38;;;-11.69;99.24
29433;BME280;16405;53.964;13.448;2022-12-18T04:51:53;102781.78;;;-11.79;99.34
29433;BME280;16405;53.964;13.448;2022-12-18T04:54:19;102779.09;;;-11.80;99.07
29433;BME280;16405;53.964;13.448;2022-12-18T04:56:50;102788.47;;;-11.79;99.67
29433;BME280;16405;53.964;13.448;2022-12-18T04:59:16;102793.69;;;-11.78;99.53
29433;BME280;16405;53.964;13.448;2022-12-18T05:01:42;102794.34;;;-11.80;99.61
29433;BME280;16405;53.964;13.448;2022-12-18T05:04:08;102796.22;;;-11.78;99.75
29433;BME280;16405;53.964;13.448;2022-12-18T05:06:34;102799.78;;;-11.76;99.52
29433;BME280;16405;53.964;13.448;2022-12-18T05:08:59;102801.44;;;-11.76;100.00
29433;BME280;16405;53.964;13.448;2022-12-18T05:11:28;102798.03;;;-11.77;100.00
29433;BME280;16405;53.964;13.448;2022-12-18T05:13:56;102796.22;;;-11.78;99.35
29433;BME280;16405;53.964;13.448;2022-12-18T05:16:22;102791.16;;;-11.78;99.51
29433;BME280;16405;53.964;13.448;2022-12-18T05:18:48;102786.31;;;-11.74;99.39
29433;BME280;16405;53.964;13.448;2022-12-18T05:21:14;102788.88;;;-11.74;99.63
29433;BME280;16405;53.964;13.448;2022-12-18T05:23:42;102788.97;;;-11.73;99.73
29433;BME280;16405;53.964;13.448;2022-12-18T05:26:16;102785.41;;;-11.75;99.66
29433;BME280;16405;53.964;13.448;2022-12-18T05:28:42;102793.16;;;-11.73;99.37
29433;BME280;16405;53.964;13.448;2022-12-18T05:31:14;102781.25;;;-11.74;99.95
29433;BME280;16405;53.964;13.448;2022-12-18T05:33:39;102765.50;;;-11.81;99.28
29433;BME280;16405;53.964;13.448;2022-12-18T05:36:08;102765.25;;;-11.84;99.09
29433;BME280;16405;53.964;13.448;2022-12-18T05:38:39;102775.03;;;-11.78;99.70
29433;BME280;16405;53.964;13.448;2022-12-18T05:41:08;102786.50;;;-11.83;99.60
29433;BME280;16405;53.964;13.448;2022-12-18T05:43:36;102799.94;;;-11.84;98.98
29433;BME280;16405;53.964;13.448;2022-12-18T05:46:08;102791.31;;;-11.86;99.40
29433;BME280;16405;53.964;13.448;2022-12-18T05:48:34;102790.44;;;-11.87;99.52
29433;BME280;16405;53.964;13.448;2022-12-18T05:51:06;102786.25;;;-11.86;99.51
29433;BME280;16405;53.964;13.448;2022-12-18T05:53:36;102789.13;;;-11.82;100.00
29433;BME280;16405;53.964;13.448;2022-12-18T05:56:05;102794.56;;;-11.77;100.00
29433;BME280;16405;53.964;13.448;2022-12-18T05:58:32;102794.69;;;-11.76;100.00
29433;BME280;16405;53.964;13.448;2022-12-18T06:01:05;102796.72;;;-11.71;100.00
29433;BME280;16405;53.964;13.448;2022-12-18T06:03:31;102808.63;;;-11.70;100.00
29433;BME280;16405;53.964;13.448;2022-12-18T06:05:56;102817.50;;;-11.65;100.00
29433;BME280;16405;53.964;13.448;2022-12-18T06:08:22;102815.19;;;-11.62;99.97
29433;BME280;16405;53.964;13.448;2022-12-18T06:10:54;102809.88;;;-11.65;100.00
29433;BME280;16405;53.964;13.448;2022-12-18T06:13:21;102796.22;;;-11.78;100.00
29433;BME280;16405;53.964;13.448;2022-12-18T06:15:46;102795.53;;;-11.87;100.00
29433;BME280;16405;53.964;13.448;2022-12-18T06:18:12;102807.25;;;-11.89;99.72
29433;BME280;16405;53.964;13.448;2022-12-18T06:20:38;102826.25;;;-11.84;99.46
29433;BME280;16405;53.964;13.448;2022-12-18T06:23:09;102839.97;;;-11.82;100.00
29433;BME280;16405;53.964;13.448;2022-12-18T06:25:39;102839.97;;;-11.82;99.26
29433;BME280;16405;53.964;13.448;2022-12-18T06:28:05;102841.75;;;-11.81;99.16
29433;BME280;16405;53.964;13.448;2022-12-18T06:30:31;102837.66;;;-11.79;99.93
29433;BME280;16405;53.964;13.448;2022-12-18T06:32:57;102831.22;;;-11.85;99.75
29433;BME280;16405;53.964;13.448;2022-12-18T06:35:23;102823.59;;;-11.85;99.46
29433;BME280;16405;53.964;13.448;2022-12-18T06:37:56;102821.50;;;-11.91;98.86
29433;BME280;16405;53.964;13.448;2022-12-18T06:40:22;102819.34;;;-11.97;99.55
29433;BME280;16405;53.964;13.448;2022-12-18T06:42:48;102808.31;;;-11.97;98.98
29433;BME280;16405;53.964;13.448;2022-12-18T06:45:21;102804.09;;;-11.97;98.90
29433;BME280;16405;53.964;13.448;2022-12-18T06:47:47;102807.56;;;-11.96;99.67
29433;BME280;16405;53.964;13.448;2022-12-18T06:50:13;102811.47;;;-11.89;99.73
29433;BME280;16405;53.964;13.448;2022-12-18T06:52:39;102821.41;;;-11.81;99.97
29433;BME280;16405;53.964;13.448;2022-12-18T06:55:10;102835.13;;;-11.79;99.09
29433;BME280;16405;53.964;13.448;2022-12-18T06:57:37;102842.63;;;-11.80;99.61
29433;BME280;16405;53.964;13.448;2022-12-18T07:00:05;102855.84;;;-11.84;98.97
29433;BME280;16405;53.964;13.448;2022-12-18T07:02:32;102852.75;;;-11.92;99.10
29433;BME280;16405;53.964;13.448;2022-12-18T07:04:58;102848.59;;;-12.02;98.63
29433;BME280;16405;53.964;13.448;2022-12-18T07:07:27;102841.78;;;-12.13;98.47
29433;BME280;16405;53.964;13.448;2022-12-18T07:09:55;102836.88;;;-12.22;97.79
29433;BME280;16405;53.964;13.448;2022-12-18T07:12:21;102841.31;;;-12.19;98.03
29433;BME280;16405;53.964;13.448;2022-12-18T07:14:46;102840.16;;;-12.23;97.49
29433;BME280;16405;53.964;13.448;2022-12-18T07:17:13;102841.31;;;-12.19;97.95
29433;BME280;16405;53.964;13.448;2022-12-18T07:19:38;102843.06;;;-12.18;97.10
29433;BME280;16405;53.964;13.448;2022-12-18T07:22:10;102847.75;;;-12.12;97.21
29433;BME280;16405;53.964;13.448;2022-12-18T07:24:35;102853.06;;;-12.09;97.60
29433;BME280;16405;53.964;13.448;2022-12-18T07:27:01;102856.59;;;-12.07;97.53
29433;BME280;16405;53.964;13.448;2022-12-18T07:29:27;102865.06;;;-11.97;98.04
29433;BME280;16405;53.964;13.448;2022-12-18T07:31:54;102879.16;;;-11.90;98.20
29433;BME280;16405;53.964;13.448;2022-12-18T07:34:20;102878.69;;;-11.96;97.91
29433;BME280;16405;53.964;13.448;2022-12-18T07:36:45;102885.66;;;-11.93;97.29
29433;BME280;16405;53.964;13.448;2022-12-18T07:39:13;102883.94;;;-11.83;96.99
29433;BME280;16405;53.964;13.448;2022-12-18T07:41:39;102880.72;;;-11.70;97.93
29433;BME280;16405;53.964;13.448;2022-12-18T07:44:12;102882.03;;;-11.53;97.24
29433;BME280;16405;53.964;13.448;2022-12-18T07:46:40;102882.06;;;-11.41;97.21
29433;BME280;16405;53.964;13.448;2022-12-18T07:49:06;102887.31;;;-11.28;97.99
29433;BME280;16405;53.964;13.448;2022-12-18T07:51:32;102883.19;;;-11.16;97.96
29433;BME280;16405;53.964;13.448;2022-12-18T07:53:58;102887.75;;;-11.00;99.30
29433;BME280;16405;53.964;13.448;2022-12-18T07:56:23;102886.16;;;-10.87;99.09
29433;BME280;16405;53.964;13.448;2022-12-18T07:58:49;102880.53;;;-10.83;99.00
29433;BME280;16405;53.964;13.448;2022-12-18T08:01:20;102884.00;;;-10.71;99.49
29433;BME280;16405;53.964;13.448;2022-12-18T08:03:45;102901.94;;;-10.58;99.48
29433;BME280;16405;53.964;13.448;2022-12-18T08:06:11;102901.94;;;-10.46;99.91
29433;BME280;16405;53.964;13.448;2022-12-18T08:08:37;102897.78;;;-10.34;100.00
29433;BME280;16405;53.964;13.448;2022-12-18T08:11:03;102894.44;;;-10.21;100.00
29433;BME280;16405;53.964;13.448;2022-12-18T08:13:29;102891.78;;;-10.11;100.00
29433;BME280;16405;53.964;13.448;2022-12-18T08:16:06;102896.72;;;-10.00;100.00
29433;BME280;16405;53.964;13.448;2022-12-18T08:18:37;102899.38;;;-9.87;100.00
29433;BME280;16405;53.964;13.448;2022-12-18T08:21:18;102902.81;;;-9.75;100.00
29433;BME280;16405;53.964;13.448;2022-12-18T08:23:46;102917.31;;;-9.62;100.00
29433;BME280;16405;53.964;13.448;2022-12-18T08:26:13;102917.88;;;-9.54;100.00
29433;BME280;16405;53.964;13.448;2022-12-18T08:28:40;102925.28;;;-9.45;100.00
29433;BME280;16405;53.964;13.448;2022-12-18T08:31:06;102926.78;;;-9.36;100.00
29433;BME280;16405;53.964;13.448;2022-12-18T08:33:36;102944.09;;;-9.32;100.00
29433;BME280;16405;53.964;13.448;2022-12-18T08:36:04;102944.53;;;-9.25;100.00
29433;BME280;16405;53.964;13.448;2022-12-18T08:38:32;102938.16;;;-9.19;100.00
29433;BME280;16405;53.964;13.448;2022-12-18T08:41:05;102938.78;;;-9.10;100.00
29433;BME280;16405;53.964;13.448;2022-12-18T08:43:31;102937.66;;;-9.01;100.00
29433;BME280;16405;53.964;13.448;2022-12-18T08:46:17;102942.50;;;-8.93;100.00
29433;BME280;16405;53.964;13.448;2022-12-18T08:48:43;102951.28;;;-8.89;100.00
29433;BME280;16405;53.964;13.448;2022-12-18T08:51:16;102949.66;;;-8.75;100.00
29433;BME280;16405;53.964;13.448;2022-12-18T08:53:43;102954.59;;;-8.65;100.00
29433;BME280;16405;53.964;13.448;2022-12-18T08:56:10;102966.25;;;-8.43;100.00
29433;BME280;16405;53.964;13.448;2022-12-18T08:58:38;102966.38;;;-8.29;100.00
29433;BME280;16405;53.964;13.448;2022-12-18T09:01:10;102971.50;;;-8.15;100.00
29433;BME280;16405;53.964;13.448;2022-12-18T09:03:37;102967.06;;;-8.18;99.32
29433;BME280;16405;53.964;13.448;2022-12-18T09:06:06;102963.59;;;-8.32;98.67
29433;BME280;16405;53.964;13.448;2022-12-18T09:08:35;102953.69;;;-8.40;98.32
29433;BME280;16405;53.964;13.448;2022-12-18T09:11:23;102957.50;;;-8.47;98.32
29433;BME280;16405;53.964;13.448;2022-12-18T09:13:59;102958.75;;;-8.54;97.50
29433;BME280;16405;53.964;13.448;2022-12-18T09:16:26;102961.63;;;-8.49;97.65
29433;BME280;16405;53.964;13.448;2022-12-18T09:18:55;102970.06;;;-8.37;97.03
29433;BME280;16405;53.964;13.448;2022-12-18T09:21:27;102963.88;;;-8.27;97.67
29433;BME280;16405;53.964;13.448;2022-12-18T09:23:59;102965.88;;;-8.23;97.14
29433;BME280;16405;53.964;13.448;2022-12-18T09:26:26;102953.66;;;-8.27;96.81
29433;BME280;16405;53.964;13.448;2022-12-18T09:28:52;102959.75;;;-8.25;96.66
29433;BME280;16405;53.964;13.448;2022-12-18T09:31:27;102959.41;;;-8.18;96.68
29433;BME280;16405;53.964;13.448;2022-12-18T09:33:55;102964.13;;;-8.11;97.15
29433;BME280;16405;53.964;13.448;2022-12-18T09:36:32;102961.38;;;-8.14;96.95
29433;BME280;16405;53.964;13.448;2022-12-18T09:38:58;102960.09;;;-8.20;97.23
29433;BME280;16405;53.964;13.448;2022-12-18T09:41:37;102961.97;;;-8.18;96.52
29433;BME280;16405;53.964;13.448;2022-12-18T09:47:13;102971.59;;;-8.14;97.54
29433;BME280;16405;53.964;13.448;2022-12-18T09:49:58;102976.91;;;-8.11;97.51
29433;BME280;16405;53.964;13.448;2022-12-18T09:52:48;102975.91;;;-8.13;97.35
29433;BME280;16405;53.964;13.448;2022-12-18T09:55:38;102967.56;;;-8.10;96.86
29433;BME280;16405;53.964;13.448;2022-12-18T09:58:19;102972.00;;;-8.08;97.70
29433;BME280;16405;53.964;13.448;2022-12-18T10:00:51;102957.56;;;-7.94;97.82
29433;BME280;16405;53.964;13.448;2022-12-18T10:03:17;102966.22;;;-7.78;98.41
29433;BME280;16405;53.964;13.448;2022-12-18T10:06:14;102965.50;;;-7.63;98.99
29433;BME280;16405;53.964;13.448;2022-12-18T10:17:58;102970.88;;;-7.18;98.68
29433;BME280;16405;53.964;13.448;2022-12-18T10:20:42;102972.81;;;-7.14;97.78
29433;BME280;16405;53.964;13.448;2022-12-18T10:23:39;102964.28;;;-7.14;97.65
29433;BME280;16405;53.964;13.448;2022-12-18T10:26:10;102958.47;;;-7.25;97.63
29433;BME280;16405;53.964;13.448;2022-12-18T10:28:40;102949.72;;;-7.29;97.30
29433;BME280;16405;53.964;13.448;2022-12-18T10:31:18;102956.00;;;-7.24;97.36
29433;BME280;16405;53.964;13.448;2022-12-18T10:33:44;102950.66;;;-7.13;97.56
29433;BME280;16405;53.964;13.448;2022-12-18T10:36:10;102947.00;;;-7.04;98.41
29433;BME280;16405;53.964;13.448;2022-12-18T10:38:38;102947.81;;;-6.90;98.16
29433;BME280;16405;53.964;13.448;2022-12-18T10:44:23;102962.25;;;-6.77;97.17
29433;BME280;16405;53.964;13.448;2022-12-18T10:46:54;102956.66;;;-6.85;97.54
29433;BME280;16405;53.964;13.448;2022-12-18T10:49:28;102955.59;;;-6.88;97.27
29433;BME280;16405;53.964;13.448;2022-12-18T10:52:18;102950.38;;;-6.90;97.10
29433;BME280;16405;53.964;13.448;2022-12-18T10:55:01;102946.06;;;-6.91;97.54
29433;BME280;16405;53.964;13.448;2022-12-18T10:57:39;102936.16;;;-6.85;96.70
29433;BME280;16405;53.964;13.448;2022-12-18T11:00:30;102936.63;;;-6.77;96.55
29433;BME280;16405;53.964;13.448;2022-12-18T11:02:56;102939.38;;;-6.74;96.31
29433;BME280;16405;53.964;13.448;2022-12-18T11:05:30;102929.22;;;-6.72;96.71
29433;BME280;16405;53.964;13.448;2022-12-18T11:08:00;102924.63;;;-6.63;96.30
29433;BME280;16405;53.964;13.448;2022-12-18T11:10:33;102923.13;;;-6.60;96.97
29433;BME280;16405;53.964;13.448;2022-12-18T11:13:23;102930.13;;;-6.57;96.44
29433;BME280;16405;53.964;13.448;2022-12-18T11:15:50;102940.63;;;-6.52;96.88
29433;BME280;16405;53.964;13.448;2022-12-18T11:21:14;102932.44;;;-6.47;96.84
29433;BME280;16405;53.964;13.448;2022-12-18T11:23:53;102930.03;;;-6.44;96.42
29433;BME280;16405;53.964;13.448;2022-12-18T11:26:19;102935.81;;;-6.48;96.93
29433;BME280;16405;53.964;13.448;2022-12-18T11:29:07;102929.25;;;-6.57;96.42
29433;BME280;16405;53.964;13.448;2022-12-18T11:31:33;102926.06;;;-6.53;96.50
29433;BME280;16405;53.964;13.448;2022-12-18T11:34:22;102918.47;;;-6.52;96.60
29433;BME280;16405;53.964;13.448;2022-12-18T11:36:52;102930.03;;;-6.44;96.65
29433;BME280;16405;53.964;13.448;2022-12-18T11:39:26;102929.25;;;-6.43;96.70
29433;BME280;16405;53.964;13.448;2022-12-18T11:42:24;102929.53;;;-6.38;96.48
29433;BME280;16405;53.964;13.448;2022-12-18T11:47:51;102930.34;;;-6.39;96.12
29433;BME280;16405;53.964;13.448;2022-12-18T11:50:26;102931.72;;;-6.44;96.85
29433;BME280;16405;53.964;13.448;2022-12-18T11:52:53;102935.59;;;-6.51;96.51
29433;BME280;16405;53.964;13.448;2022-12-18T11:58:28;102947.47;;;-6.23;97.02
29433;BME280;16405;53.964;13.448;2022-12-18T12:01:19;102950.41;;;-6.17;97.33
29433;BME280;16405;53.964;13.448;2022-12-18T12:15:28;102969.59;;;-6.10;96.08
29433;BME280;16405;53.964;13.448;2022-12-18T12:19:15;102965.53;;;-6.07;96.60
29433;BME280;16405;53.964;13.448;2022-12-18T12:21:40;102957.91;;;-6.20;96.17
29433;BME280;16405;53.964;13.448;2022-12-18T12:30:18;102957.38;;;-6.29;95.87
29433;BME280;16405;53.964;13.448;2022-12-18T12:41:06;102946.03;;;-6.33;95.47
29433;BME280;16405;53.964;13.448;2022-12-18T12:43:58;102950.66;;;-6.42;95.16
29433;BME280;16405;53.964;13.448;2022-12-18T12:46:25;102953.66;;;-6.49;95.77
29433;BME280;16405;53.964;13.448;2022-12-18T12:48:58;102956.34;;;-6.61;95.70
29433;BME280;16405;53.964;13.448;2022-12-18T12:51:37;102956.69;;;-6.70;95.51
29433;BME280;16405;53.964;13.448;2022-12-18T12:54:21;102963.13;;;-6.76;94.97
29433;BME280;16405;53.964;13.448;2022-12-18T13:00:05;102958.44;;;-6.84;94.97
29433;BME280;16405;53.964;13.448;2022-12-18T13:03:23;102947.72;;;-6.91;94.79
29433;BME280;16405;53.964;13.448;2022-12-18T13:06:14;102949.69;;;-6.87;95.51
29433;BME280;16405;53.964;13.448;2022-12-18T13:08:58;102942.09;;;-6.86;94.91
29433;BME280;16405;53.964;13.448;2022-12-18T13:11:42;102936.25;;;-6.83;96.11
29433;BME280;16405;53.964;13.448;2022-12-18T13:17:24;102926.28;;;-6.78;96.28
29433;BME280;16405;53.964;13.448;2022-12-18T13:20:11;102928.34;;;-6.73;96.58
29433;BME280;16405;53.964;13.448;2022-12-18T13:25:34;102932.59;;;-6.73;97.46
29433;BME280;16405;53.964;13.448;2022-12-18T13:28:15;102934.88;;;-6.78;97.66
29433;BME280;16405;53.964;13.448;2022-12-18T13:30:44;102927.88;;;-6.81;97.52
29433;BME280;16405;53.964;13.448;2022-12-18T13:38:36;102930.25;;;-6.84;97.76
29433;BME280;16405;53.964;13.448;2022-12-18T13:43:55;102921.44;;;-6.89;97.50
29433;BME280;16405;53.964;13.448;2022-12-18T13:46:46;102921.72;;;-7.12;98.28
29433;BME280;16405;53.964;13.448;2022-12-18T13:51:49;102925.09;;;-7.27;97.63
29433;BME280;16405;53.964;13.448;2022-12-18T13:54:39;102925.38;;;-7.22;98.50
29433;BME280;16405;53.964;13.448;2022-12-18T13:59:53;102908.19;;;-7.38;98.00
29433;BME280;16405;53.964;13.448;2022-12-18T14:02:28;102908.41;;;-7.48;98.41
29433;BME280;16405;53.964;13.448;2022-12-18T14:04:54;102905.19;;;-7.59;98.22
29433;BME280;16405;53.964;13.448;2022-12-18T14:07:24;102890.97;;;-7.69;99.06
29433;BME280;16405;53.964;13.448;2022-12-18T14:10:01;102885.44;;;-7.75;99.49
29433;BME280;16405;53.964;13.448;2022-12-18T14:12:33;102875.41;;;-7.85;99.47
29433;BME280;16405;53.964;13.448;2022-12-18T14:15:42;102878.00;;;-7.98;98.82
29433;BME280;16405;53.964;13.448;2022-12-18T14:21:01;102867.78;;;-8.12;99.77
29433;BME280;16405;53.964;13.448;2022-12-18T14:23:44;102862.75;;;-8.10;99.54
29433;BME280;16405;53.964;13.448;2022-12-18T14:26:32;102863.25;;;-8.16;99.42
29433;BME280;16405;53.964;13.448;2022-12-18T14:29:18;102858.31;;;-8.13;99.86
29433;BME280;16405;53.964;13.448;2022-12-18T14:31:44;102860.78;;;-8.14;100.00
29433;BME280;16405;53.964;13.448;2022-12-18T14:34:16;102855.59;;;-8.16;99.88
29433;BME280;16405;53.964;13.448;2022-12-18T14:36:52;102863.84;;;-8.20;100.00
29433;BME280;16405;53.964;13.448;2022-12-18T14:39:19;102856.47;;;-8.29;100.00
29433;BME280;16405;53.964;13.448;2022-12-18T14:41:45;102850.25;;;-8.32;100.00
29433;BME280;16405;53.964;13.448;2022-12-18T14:44:12;102853.63;;;-8.33;100.00
29433;BME280;16405;53.964;13.448;2022-12-18T14:46:47;102857.81;;;-8.34;100.00